createdAt,value
2018-02-13T00:01:43.000Z,14.3
2018-02-13T00:11:43.000Z,14.6
2018-02-13T00:21:43.000Z,14.2
2018-02-13T00:31:43.000Z,13.9
2018-02-13T00:41:43.000Z,13.7
2018-02-13T00:51:43.000Z,13.7
2018-02-13T01:01:43.000Z,13.4
2018-02-13T01:11:43.000Z,13.5
2018-02-13T01:21:43.000Z,13.3
2018-02-13T01:31:43.000Z,13.1
2018-02-13T01:41:43.000Z,13.5
2018-02-13T01:51:43.000Z,13.3
2018-02-13T02:01:43.000Z,13.2
2018-02-13T02:11:43.000Z,13.2
2018-02-13T02:21:44.000Z,13.3
2018-02-13T02:31:44.000Z,13.2
2018-02-13T02:41:44.000Z,13
2018-02-13T02:51:44.000Z,13.1
2018-02-13T03:01:44.000Z,12.8
2018-02-13T03:11:44.000Z,12.9
2018-02-13T03:21:44.000Z,12.9
2018-02-13T03:31:44.000Z,12.8
2018-02-13T03:41:44.000Z,13
2018-02-13T03:51:44.000Z,12.9
2018-02-13T04:01:44.000Z,12.9
2018-02-13T04:11:44.000Z,12.6
2018-02-13T04:21:44.000Z,12.7
2018-02-13T04:31:44.000Z,12.7
2018-02-13T04:41:44.000Z,12.8
2018-02-13T04:51:44.000Z,12.7
2018-02-13T05:01:44.000Z,12.7
2018-02-13T05:11:44.000Z,12.6
2018-02-13T05:21:44.000Z,12.5
2018-02-13T05:31:44.000Z,12.9
2018-02-13T05:41:44.000Z,12.6
2018-02-13T05:51:44.000Z,12.4
2018-02-13T06:01:44.000Z,12.4
2018-02-13T06:11:44.000Z,12.4
2018-02-13T06:21:44.000Z,12.3
2018-02-13T06:31:44.000Z,12.4
2018-02-13T06:41:44.000Z,12.5
2018-02-13T06:51:44.000Z,12.3
2018-02-13T07:01:44.000Z,12.2
2018-02-13T07:11:44.000Z,12.2
2018-02-13T07:21:44.000Z,12.3
2018-02-13T07:31:44.000Z,13.3
2018-02-13T07:41:44.000Z,14.8
2018-02-13T07:51:44.000Z,15.6
2018-02-13T08:01:44.000Z,15.9
2018-02-13T08:11:44.000Z,16.1
2018-02-13T08:21:44.000Z,16.5
2018-02-13T08:31:44.000Z,16.6
2018-02-13T08:41:44.000Z,16.7
2018-02-13T08:51:44.000Z,16.7
2018-02-13T09:01:44.000Z,16.9
2018-02-13T09:11:44.000Z,17
2018-02-13T09:21:44.000Z,17.1
2018-02-13T09:31:44.000Z,17.2
2018-02-13T09:41:45.000Z,17.1
2018-02-13T09:51:45.000Z,17.2
2018-02-13T10:01:45.000Z,17.3
2018-02-13T10:11:45.000Z,17.4
2018-02-13T10:21:45.000Z,17.5
2018-02-13T10:31:45.000Z,17.5
2018-02-13T10:41:45.000Z,17.5
2018-02-13T10:51:45.000Z,17.6
2018-02-13T11:01:45.000Z,17.7
2018-02-13T11:11:45.000Z,17.7
2018-02-13T11:21:45.000Z,17.7
2018-02-13T11:31:45.000Z,17.8
2018-02-13T11:41:45.000Z,17.9
2018-02-13T11:51:45.000Z,17.9
2018-02-13T12:01:45.000Z,17.9
2018-02-13T12:11:45.000Z,17.9
2018-02-13T12:21:45.000Z,17.9
2018-02-13T12:31:45.000Z,17.9
2018-02-13T12:41:45.000Z,18
2018-02-13T12:51:45.000Z,18
2018-02-13T13:01:45.000Z,18.1
2018-02-13T13:11:45.000Z,18.1
2018-02-13T13:21:45.000Z,18.1
2018-02-13T13:31:45.000Z,18.1
2018-02-13T13:41:45.000Z,18.1
2018-02-13T13:51:45.000Z,18.2
2018-02-13T14:01:45.000Z,18.1
2018-02-13T14:11:45.000Z,18.2
2018-02-13T14:21:45.000Z,18.3
2018-02-13T14:31:45.000Z,18.3
2018-02-13T14:41:45.000Z,18.3
2018-02-13T14:51:45.000Z,18.3
2018-02-13T15:01:46.000Z,18.3
2018-02-13T15:11:45.000Z,18.4
2018-02-13T15:21:45.000Z,18.3
2018-02-13T15:31:45.000Z,18.3
2018-02-13T15:41:46.000Z,18.5
2018-02-13T15:51:45.000Z,18.5
2018-02-13T16:01:45.000Z,18.4
2018-02-13T16:11:45.000Z,18.5
2018-02-13T16:21:45.000Z,18.5
2018-02-13T16:31:45.000Z,18.6
2018-02-13T16:41:46.000Z,18.6
2018-02-13T16:51:46.000Z,18.6
2018-02-13T17:01:46.000Z,18.6
2018-02-13T17:11:46.000Z,18.6
2018-02-13T17:21:46.000Z,18.6
2018-02-13T17:31:46.000Z,18.5
2018-02-13T17:41:46.000Z,18.6
2018-02-13T17:51:46.000Z,18.6
2018-02-13T18:01:46.000Z,18.6
2018-02-13T18:11:46.000Z,18.7
2018-02-13T18:21:46.000Z,18.6
2018-02-13T18:31:46.000Z,18.5
2018-02-13T18:51:46.000Z,18.5
2018-02-13T19:01:46.000Z,18.4
2018-02-13T19:11:46.000Z,18.4
2018-02-13T19:21:46.000Z,18.4
2018-02-13T19:31:46.000Z,18.4
2018-02-13T19:41:46.000Z,18.4
2018-02-13T19:51:46.000Z,18.4
2018-02-13T20:01:46.000Z,18.4
2018-02-13T20:11:46.000Z,18.3
2018-02-13T20:21:46.000Z,18.4
2018-02-13T20:31:46.000Z,18.4
2018-02-13T20:41:46.000Z,18.4
2018-02-13T20:51:46.000Z,18.3
2018-02-13T21:11:46.000Z,18.4
2018-02-13T21:21:46.000Z,18.4
2018-02-13T21:31:46.000Z,18.5
2018-02-13T21:41:46.000Z,16.9
2018-02-13T21:51:46.000Z,15.6
2018-02-13T22:01:48.000Z,15
2018-02-13T22:11:46.000Z,14.8
2018-02-13T22:21:46.000Z,14.3
2018-02-13T22:31:46.000Z,14
2018-02-13T22:41:46.000Z,13.9
2018-02-13T22:51:46.000Z,13.9
2018-02-13T23:01:46.000Z,13.7
2018-02-13T23:11:47.000Z,13.4
2018-02-13T23:21:46.000Z,13.4
2018-02-13T23:31:46.000Z,13.3
2018-02-13T23:41:46.000Z,13.1
2018-02-13T23:51:47.000Z,13.1
